Time,TemperatureF,DewpointF,PressureIn,WindDirection,WindDirectionDegrees,WindSpeedMPH,WindSpeedGustMPH,Humidity,HourlyPrecipIn,Conditions,Clouds,dailyrainin,SoftwareType,DateUTC
2015-09-03 00:01:00,66.6,64.5,29.78,NNW,337,0.0,0.0,93,0.00,,---,0.00,VWS V14.01,2015-09-03 04:01:00,
2015-09-03 00:06:00,66.5,64.4,29.78,NNW,337,0.0,0.0,93,0.00,,---,0.00,VWS V14.01,2015-09-03 04:06:00,
2015-09-03 00:11:00,66.4,64.3,29.78,NNW,337,0.0,0.0,93,0.00,,---,0.00,VWS V14.01,2015-09-03 04:11:00,
2015-09-03 00:16:00,66.3,64.2,29.78,NNW,337,0.0,0.0,93,0.00,,---,0.00,VWS V14.01,2015-09-03 04:16:00,
2015-09-03 00:21:00,66.3,64.5,29.78,NNW,337,0.0,0.0,94,0.00,,---,0.00,VWS V14.01,2015-09-03 04:21:00,
2015-09-03 00:26:00,66.2,64.1,29.78,NNW,337,0.0,0.0,93,0.00,,---,0.00,VWS V14.01,2015-09-03 04:26:00,
2015-09-03 00:31:00,66.1,64.3,29.78,NNW,337,0.0,0.0,94,0.00,,---,0.00,VWS V14.01,2015-09-03 04:31:00,
2015-09-03 00:36:00,66.0,64.2,29.78,NNW,337,0.0,0.0,94,0.00,,---,0.00,VWS V14.01,2015-09-03 04:36:00,
2015-09-03 00:41:00,65.9,64.1,29.77,NNW,337,0.0,0.0,94,0.00,,---,0.00,VWS V14.01,2015-09-03 04:41:00,
2015-09-03 00:46:00,65.9,64.1,29.78,NNW,337,0.0,0.0,94,0.00,,---,0.00,VWS V14.01,2015-09-03 04:46:00,
2015-09-03 00:51:00,66.0,64.2,29.78,NNW,337,0.0,0.0,94,0.00,,---,0.00,VWS V14.01,2015-09-03 04:51:00,
2015-09-03 00:56:00,66.1,64.3,29.77,NNW,337,0.0,0.0,94,0.00,,---,0.00,VWS V14.01,2015-09-03 04:56:00,
2015-09-03 01:01:00,65.9,64.1,29.77,NNW,337,0.0,0.0,94,0.00,,---,0.00,VWS V14.01,2015-09-03 05:01:00,
2015-09-03 01:06:00,65.8,64.0,29.77,NNW,337,0.0,0.0,94,0.00,,---,0.00,VWS V14.01,2015-09-03 05:06:00,
2015-09-03 01:11:00,65.7,63.9,29.77,NNW,337,0.0,0.0,94,0.00,,---,0.00,VWS V14.01,2015-09-03 05:11:00,
2015-09-03 01:16:00,65.6,63.8,29.77,NNW,337,0.0,0.0,94,0.00,,---,0.00,VWS V14.01,2015-09-03 05:16:00,
2015-09-03 01:21:00,65.5,63.7,29.77,NNW,337,0.0,0.0,94,0.00,,---,0.00,VWS V14.01,2015-09-03 05:21:00,
2015-09-03 01:26:00,65.4,63.6,29.77,NNW,337,0.0,0.0,94,0.00,,---,0.00,VWS V14.01,2015-09-03 05:26:00,
2015-09-03 01:31:00,65.3,63.5,29.77,NNW,337,0.0,0.0,94,0.00,,---,0.00,VWS V14.01,2015-09-03 05:31:00,
2015-09-03 01:36:00,65.2,63.4,29.77,NNW,337,0.0,0.0,94,0.00,,---,0.00,VWS V14.01,2015-09-03 05:36:00,
2015-09-03 01:41:00,65.1,63.6,29.77,NNW,337,0.0,0.0,95,0.00,,---,0.00,VWS V14.01,2015-09-03 05:41:00,
2015-09-03 01:46:00,65.0,63.5,29.77,NNW,337,0.0,0.0,95,0.00,,---,0.00,VWS V14.01,2015-09-03 05:46:00,
2015-09-03 01:51:00,64.9,63.4,29.77,NNW,337,0.0,0.0,95,0.00,,---,0.00,VWS V14.01,2015-09-03 05:51:00,
2015-09-03 01:56:00,64.9,63.4,29.77,NNW,337,0.0,0.0,95,0.00,,---,0.00,VWS V14.01,2015-09-03 05:56:00,
2015-09-03 02:01:00,64.8,63.3,29.77,NNW,337,0.0,0.0,95,0.00,,---,0.00,VWS V14.01,2015-09-03 06:01:00,
2015-09-03 02:06:00,64.7,63.2,29.76,NNW,337,0.0,0.0,95,0.00,,---,0.00,VWS V14.01,2015-09-03 06:06:00,
2015-09-03 02:11:00,64.6,63.1,29.76,NNW,337,0.0,0.0,95,0.00,,---,0.00,VWS V14.01,2015-09-03 06:11:00,
2015-09-03 02:16:00,64.4,62.9,29.76,NNW,337,0.0,0.0,95,0.00,,---,0.00,VWS V14.01,2015-09-03 06:16:00,
2015-09-03 02:21:00,64.4,62.9,29.76,NNW,337,0.0,0.0,95,0.00,,---,0.00,VWS V14.01,2015-09-03 06:21:00,
2015-09-03 02:26:00,64.3,62.8,29.76,NNW,337,0.0,0.0,95,0.00,,---,0.00,VWS V14.01,2015-09-03 06:26:00,
2015-09-03 02:31:00,64.2,63.0,29.76,NNW,337,0.0,0.0,96,0.00,,---,0.00,VWS V14.01,2015-09-03 06:31:00,
2015-09-03 02:36:00,64.2,63.0,29.77,NNW,337,0.0,0.0,96,0.00,,---,0.00,VWS V14.01,2015-09-03 06:36:00,
2015-09-03 02:40:00,64.1,62.9,29.76,NNW,337,0.0,0.0,96,0.00,,---,0.00,VWS V14.01,2015-09-03 06:40:00,
2015-09-03 02:45:00,64.0,62.8,29.76,NNW,337,0.0,0.0,96,0.00,,---,0.00,VWS V14.01,2015-09-03 06:45:00,
2015-09-03 02:50:00,64.0,62.8,29.76,NNW,337,0.0,0.0,96,0.00,,---,0.00,VWS V14.01,2015-09-03 06:50:00,
2015-09-03 02:55:00,63.9,62.7,29.76,NNW,337,0.0,0.0,96,0.00,,---,0.00,VWS V14.01,2015-09-03 06:55:00,
2015-09-03 03:00:00,63.9,62.7,29.76,NNW,337,0.0,0.0,96,0.00,,---,0.00,VWS V14.01,2015-09-03 07:00:00,
2015-09-03 03:05:00,63.8,62.6,29.76,NNW,337,0.0,0.0,96,0.00,,---,0.00,VWS V14.01,2015-09-03 07:05:00,
2015-09-03 03:10:00,63.8,62.6,29.76,NNW,337,0.0,0.0,96,0.00,,---,0.00,VWS V14.01,2015-09-03 07:10:00,
2015-09-03 03:15:00,63.7,62.5,29.76,NNW,337,0.0,0.0,96,0.00,,---,0.00,VWS V14.01,2015-09-03 07:15:00,
2015-09-03 03:20:00,63.6,62.4,29.76,NNW,337,0.0,0.0,96,0.00,,---,0.00,VWS V14.01,2015-09-03 07:20:00,
2015-09-03 03:25:00,63.5,62.3,29.76,NNW,337,0.0,0.0,96,0.00,,---,0.00,VWS V14.01,2015-09-03 07:25:00,
2015-09-03 03:30:00,63.5,62.3,29.75,NNW,337,0.0,0.0,96,0.00,,---,0.00,VWS V14.01,2015-09-03 07:30:00,
2015-09-03 03:35:00,63.4,62.2,29.75,NNW,337,0.0,0.0,96,0.00,,---,0.00,VWS V14.01,2015-09-03 07:35:00,
2015-09-03 03:40:00,63.4,62.5,29.75,NNW,337,0.0,0.0,97,0.00,,---,0.00,VWS V14.01,2015-09-03 07:40:00,
2015-09-03 03:45:00,63.4,62.5,29.75,NNW,337,0.0,0.0,97,0.00,,---,0.00,VWS V14.01,2015-09-03 07:45:00,
2015-09-03 03:50:00,63.3,62.4,29.75,NNW,337,0.0,0.0,97,0.00,,---,0.00,VWS V14.01,2015-09-03 07:50:00,
2015-09-03 03:55:00,63.3,62.4,29.76,NNW,337,0.0,0.0,97,0.00,,---,0.00,VWS V14.01,2015-09-03 07:55:00,
2015-09-03 04:00:00,63.2,62.3,29.76,NNW,337,0.0,0.0,97,0.00,,---,0.00,VWS V14.01,2015-09-03 08:00:00,
2015-09-03 04:05:00,63.2,62.3,29.76,NNW,337,0.0,0.0,97,0.00,,---,0.00,VWS V14.01,2015-09-03 08:05:00,
2015-09-03 04:10:00,63.1,62.2,29.76,NNW,337,0.0,0.0,97,0.00,,---,0.00,VWS V14.01,2015-09-03 08:10:00,
2015-09-03 04:15:00,63.0,62.1,29.76,NNW,337,0.0,0.0,97,0.00,,---,0.00,VWS V14.01,2015-09-03 08:15:00,
2015-09-03 04:20:00,62.9,62.0,29.76,NNW,337,0.0,0.0,97,0.00,,---,0.00,VWS V14.01,2015-09-03 08:20:00,
2015-09-03 04:25:00,62.9,62.0,29.76,NNW,337,0.0,0.0,97,0.00,,---,0.00,VWS V14.01,2015-09-03 08:25:00,
2015-09-03 04:30:00,62.8,61.9,29.76,NNW,337,0.0,0.0,97,0.00,,---,0.00,VWS V14.01,2015-09-03 08:30:00,
2015-09-03 04:35:00,62.8,61.9,29.76,NNW,337,0.0,0.0,97,0.00,,---,0.00,VWS V14.01,2015-09-03 08:35:00,
2015-09-03 04:40:00,62.7,61.8,29.76,NNW,337,0.0,0.0,97,0.00,,---,0.00,VWS V14.01,2015-09-03 08:40:00,
2015-09-03 04:45:00,62.7,61.8,29.76,NNW,337,0.0,0.0,97,0.00,,---,0.00,VWS V14.01,2015-09-03 08:45:00,
2015-09-03 04:50:00,62.7,61.8,29.76,NNW,337,0.0,0.0,97,0.00,,---,0.00,VWS V14.01,2015-09-03 08:50:00,
2015-09-03 04:55:00,62.6,61.7,29.76,NNW,337,0.0,0.0,97,0.00,,---,0.00,VWS V14.01,2015-09-03 08:55:00,
2015-09-03 05:00:00,62.5,61.6,29.76,NNW,337,0.0,0.0,97,0.00,,---,0.00,VWS V14.01,2015-09-03 09:00:00,
2015-09-03 05:05:00,62.5,61.6,29.76,NNW,337,0.0,0.0,97,0.00,,---,0.00,VWS V14.01,2015-09-03 09:05:00,
2015-09-03 05:10:00,62.4,61.5,29.76,NNW,337,0.0,0.0,97,0.00,,---,0.00,VWS V14.01,2015-09-03 09:10:00,
2015-09-03 05:15:00,62.4,61.5,29.76,NNW,337,0.0,0.0,97,0.00,,---,0.00,VWS V14.01,2015-09-03 09:15:00,
2015-09-03 05:20:00,62.3,61.4,29.76,NNW,337,0.0,0.0,97,0.00,,---,0.00,VWS V14.01,2015-09-03 09:20:00,
2015-09-03 05:25:00,62.2,61.3,29.76,NNW,337,0.0,0.0,97,0.00,,---,0.00,VWS V14.01,2015-09-03 09:25:00,
2015-09-03 05:30:00,62.2,61.3,29.75,NNW,337,0.0,0.0,97,0.00,,---,0.00,VWS V14.01,2015-09-03 09:30:00,
2015-09-03 05:35:00,62.2,61.3,29.75,NNW,337,0.0,0.0,97,0.00,,---,0.00,VWS V14.01,2015-09-03 09:35:00,
2015-09-03 05:40:00,62.2,61.3,29.76,NNW,337,0.0,0.0,97,0.00,,---,0.00,VWS V14.01,2015-09-03 09:40:00,
2015-09-03 05:45:00,62.2,61.3,29.76,NNW,337,0.0,0.0,97,0.00,,---,0.00,VWS V14.01,2015-09-03 09:45:00,
2015-09-03 05:50:00,62.1,61.2,29.76,NNW,337,0.0,0.0,97,0.00,,---,0.00,VWS V14.01,2015-09-03 09:50:00,
2015-09-03 05:55:00,62.2,61.6,29.76,NNW,337,0.0,0.0,98,0.00,,---,0.00,VWS V14.01,2015-09-03 09:55:00,
2015-09-03 06:00:00,62.2,61.6,29.76,NNW,337,0.0,0.0,98,0.00,,---,0.00,VWS V14.01,2015-09-03 10:00:00,
2015-09-03 06:05:00,62.2,61.6,29.76,NNW,337,0.0,0.0,98,0.00,,---,0.00,VWS V14.01,2015-09-03 10:05:00,
2015-09-03 06:10:00,62.2,61.3,29.76,NNW,337,0.0,0.0,97,0.00,,---,0.00,VWS V14.01,2015-09-03 10:10:00,
2015-09-03 06:15:00,62.1,61.2,29.76,NNW,337,0.0,0.0,97,0.00,,---,0.00,VWS V14.01,2015-09-03 10:15:00,
2015-09-03 06:20:00,62.0,61.1,29.76,NNW,337,0.0,0.0,97,0.00,,---,0.00,VWS V14.01,2015-09-03 10:20:00,
2015-09-03 06:25:00,61.9,61.0,29.76,NNW,337,0.0,0.0,97,0.00,,---,0.00,VWS V14.01,2015-09-03 10:25:00,
2015-09-03 06:35:00,62.0,61.1,29.76,NNW,337,0.0,0.0,97,0.00,,---,0.00,VWS V14.01,2015-09-03 10:35:00,
2015-09-03 06:40:00,62.0,61.1,29.76,NNW,337,0.0,0.0,97,0.00,,---,0.00,VWS V14.01,2015-09-03 10:40:00,
2015-09-03 06:45:00,62.0,61.1,29.76,NNW,337,0.0,0.0,97,0.00,,---,0.00,VWS V14.01,2015-09-03 10:45:00,
2015-09-03 06:50:00,62.0,61.1,29.76,NNW,337,0.0,0.0,97,0.00,,---,0.00,VWS V14.01,2015-09-03 10:50:00,
2015-09-03 06:55:00,62.0,61.1,29.77,NNW,337,0.0,0.0,97,0.00,,---,0.00,VWS V14.01,2015-09-03 10:55:00,
2015-09-03 07:00:00,62.0,61.1,29.77,NNW,337,0.0,0.0,97,0.00,,---,0.00,VWS V14.01,2015-09-03 11:00:00,
2015-09-03 07:05:00,62.1,61.5,29.77,NNW,337,0.0,0.0,98,0.00,,---,0.00,VWS V14.01,2015-09-03 11:05:00,
2015-09-03 07:10:00,62.1,61.5,29.77,NNW,337,0.0,0.0,98,0.00,,---,0.00,VWS V14.01,2015-09-03 11:10:00,
2015-09-03 07:15:00,62.2,61.6,29.77,NNW,337,0.0,0.0,98,0.00,,---,0.00,VWS V14.01,2015-09-03 11:15:00,
2015-09-03 07:20:00,62.2,61.6,29.77,NNW,337,0.0,0.0,98,0.00,,---,0.00,VWS V14.01,2015-09-03 11:20:00,
2015-09-03 07:25:00,62.3,61.7,29.77,NNW,337,0.0,0.0,98,0.00,,---,0.00,VWS V14.01,2015-09-03 11:25:00,
2015-09-03 07:30:00,62.4,61.8,29.77,NNW,337,0.0,0.0,98,0.00,,---,0.00,VWS V14.01,2015-09-03 11:30:00,
2015-09-03 07:35:00,62.7,62.1,29.78,NNW,337,0.0,0.0,98,0.00,,---,0.00,VWS V14.01,2015-09-03 11:35:00,
2015-09-03 07:40:00,63.0,62.4,29.78,NNW,337,0.0,0.0,98,0.00,,---,0.00,VWS V14.01,2015-09-03 11:40:00,
2015-09-03 07:45:00,63.3,62.7,29.78,NNW,337,0.0,0.0,98,0.00,,---,0.00,VWS V14.01,2015-09-03 11:45:00,
2015-09-03 07:50:00,63.5,62.9,29.78,NNW,337,0.0,0.0,98,0.00,,---,0.00,VWS V14.01,2015-09-03 11:50:00,
2015-09-03 07:55:00,63.8,63.2,29.78,NNW,337,0.0,0.0,98,0.00,,---,0.00,VWS V14.01,2015-09-03 11:55:00,
2015-09-03 08:00:00,64.4,63.8,29.78,NNW,337,0.0,0.0,98,0.00,,---,0.00,VWS V14.01,2015-09-03 12:00:00,
2015-09-03 08:05:00,65.1,64.5,29.78,NNW,337,0.0,0.0,98,0.00,,---,0.00,VWS V14.01,2015-09-03 12:05:00,
2015-09-03 08:10:00,65.7,65.1,29.78,NNW,337,0.0,0.0,98,0.00,,---,0.00,VWS V14.01,2015-09-03 12:10:00,
2015-09-03 08:15:00,66.2,65.6,29.78,NNW,337,0.0,0.0,98,0.00,,---,0.00,VWS V14.01,2015-09-03 12:15:00,
2015-09-03 08:20:00,66.8,65.9,29.78,NNW,337,0.0,0.0,97,0.00,,---,0.00,VWS V14.01,2015-09-03 12:20:00,
2015-09-03 08:25:00,67.5,66.6,29.78,NNW,337,0.0,0.0,97,0.00,,---,0.00,VWS V14.01,2015-09-03 12:25:00,
2015-09-03 08:30:00,68.1,66.9,29.78,NNW,337,0.0,0.0,96,0.00,,---,0.00,VWS V14.01,2015-09-03 12:30:00,
2015-09-03 08:35:00,68.9,67.4,29.78,NNW,337,0.0,0.0,95,0.00,,---,0.00,VWS V14.01,2015-09-03 12:35:00,
2015-09-03 08:40:00,69.7,67.9,29.78,NNW,337,0.0,0.0,94,0.00,,---,0.00,VWS V14.01,2015-09-03 12:40:00,
2015-09-03 08:45:00,70.5,68.1,29.78,NNW,337,0.0,0.0,92,0.00,,---,0.00,VWS V14.01,2015-09-03 12:45:00,
2015-09-03 08:50:00,71.3,67.9,29.78,NNW,337,0.0,0.0,89,0.00,,---,0.00,VWS V14.01,2015-09-03 12:50:00,
2015-09-03 08:55:00,71.9,68.2,29.78,NNW,337,0.0,0.0,88,0.00,,---,0.00,VWS V14.01,2015-09-03 12:55:00,
2015-09-03 09:00:00,72.7,67.9,29.78,NNW,337,0.0,0.0,85,0.00,,---,0.00,VWS V14.01,2015-09-03 13:00:00,
2015-09-03 09:05:00,73.1,68.3,29.79,NNW,337,0.0,0.0,85,0.00,,---,0.00,VWS V14.01,2015-09-03 13:05:00,
2015-09-03 09:10:00,73.5,68.4,29.79,NNW,337,0.0,0.0,84,0.00,,---,0.00,VWS V14.01,2015-09-03 13:10:00,
2015-09-03 09:15:00,73.9,68.4,29.79,NNW,337,0.0,0.0,83,0.00,,---,0.00,VWS V14.01,2015-09-03 13:15:00,
2015-09-03 09:20:00,74.3,68.4,29.79,WSW,246,0.0,1.0,82,0.00,,---,0.00,VWS V14.01,2015-09-03 13:20:00,
2015-09-03 09:25:00,74.6,68.0,29.79,WSW,246,0.0,1.0,80,0.00,,---,0.00,VWS V14.01,2015-09-03 13:25:00,
2015-09-03 09:30:00,74.9,68.3,29.79,WSW,246,0.0,1.0,80,0.00,,---,0.00,VWS V14.01,2015-09-03 13:30:00,
2015-09-03 09:35:00,75.3,68.3,29.79,WSW,246,0.0,0.0,79,0.00,,---,0.00,VWS V14.01,2015-09-03 13:35:00,
2015-09-03 09:40:00,75.7,68.7,29.79,WSW,246,0.0,0.0,79,0.00,,---,0.00,VWS V14.01,2015-09-03 13:40:00,
2015-09-03 09:45:00,76.0,68.7,29.79,WSW,246,0.0,0.0,78,0.00,,---,0.00,VWS V14.01,2015-09-03 13:45:00,
2015-09-03 09:50:00,76.2,68.8,29.79,WSW,246,0.0,0.0,78,0.00,,---,0.00,VWS V14.01,2015-09-03 13:50:00,
2015-09-03 09:55:00,76.4,68.7,29.79,SW,221,0.0,1.0,77,0.00,,---,0.00,VWS V14.01,2015-09-03 13:55:00,
2015-09-03 10:00:00,76.8,68.7,29.79,SW,221,0.0,1.0,76,0.00,,---,0.00,VWS V14.01,2015-09-03 14:00:00,
2015-09-03 10:05:00,77.3,68.4,29.79,SW,221,0.0,0.0,74,0.00,,---,0.00,VWS V14.01,2015-09-03 14:05:00,
2015-09-03 10:10:00,77.9,68.9,29.79,SW,221,0.0,0.0,74,0.00,,---,0.00,VWS V14.01,2015-09-03 14:10:00,
2015-09-03 10:15:00,78.2,68.4,29.79,SW,221,0.0,0.0,72,0.00,,---,0.00,VWS V14.01,2015-09-03 14:15:00,
2015-09-03 10:20:00,78.5,69.5,29.79,SW,221,0.0,1.0,74,0.00,,---,0.00,VWS V14.01,2015-09-03 14:20:00,
2015-09-03 10:25:00,78.7,69.7,29.79,SW,221,0.0,1.0,74,0.00,,---,0.00,VWS V14.01,2015-09-03 14:25:00,
2015-09-03 10:30:00,78.7,70.1,29.79,SW,221,0.0,1.0,75,0.00,,---,0.00,VWS V14.01,2015-09-03 14:30:00,
2015-09-03 10:35:00,78.9,69.1,29.79,SW,221,0.0,0.0,72,0.00,,---,0.00,VWS V14.01,2015-09-03 14:35:00,
2015-09-03 10:40:00,79.3,70.3,29.79,WNW,297,0.0,1.0,74,0.00,,---,0.00,VWS V14.01,2015-09-03 14:40:00,
2015-09-03 10:45:00,79.4,70.4,29.79,WNW,297,0.0,1.0,74,0.00,,---,0.00,VWS V14.01,2015-09-03 14:45:00,
2015-09-03 10:50:00,79.6,69.0,29.79,WNW,297,0.0,1.0,70,0.00,,---,0.00,VWS V14.01,2015-09-03 14:50:00,
2015-09-03 10:55:00,80.2,70.4,29.79,WNW,297,0.0,1.0,72,0.00,,---,0.00,VWS V14.01,2015-09-03 14:55:00,
2015-09-03 11:00:00,80.5,68.1,29.79,WNW,297,0.0,1.0,66,0.00,,---,0.00,VWS V14.01,2015-09-03 15:00:00,
2015-09-03 11:05:00,81.0,70.3,29.79,WNW,297,0.0,0.0,70,0.00,,---,0.00,VWS V14.01,2015-09-03 15:05:00,
2015-09-03 11:10:00,81.0,70.3,29.79,WNW,297,0.0,0.0,70,0.00,,---,0.00,VWS V14.01,2015-09-03 15:10:00,
2015-09-03 11:15:00,81.3,68.4,29.78,WNW,297,0.0,0.0,65,0.00,,---,0.00,VWS V14.01,2015-09-03 15:15:00,
2015-09-03 11:20:00,81.6,68.7,29.78,WNW,297,0.0,0.0,65,0.00,,---,0.00,VWS V14.01,2015-09-03 15:20:00,
2015-09-03 11:25:00,81.6,69.2,29.78,WNW,297,0.0,0.0,66,0.00,,---,0.00,VWS V14.01,2015-09-03 15:25:00,
2015-09-03 11:30:00,81.4,68.5,29.78,WNW,297,0.0,0.0,65,0.00,,---,0.00,VWS V14.01,2015-09-03 15:30:00,
2015-09-03 11:35:00,81.8,68.0,29.78,WNW,297,0.0,1.0,63,0.00,,---,0.00,VWS V14.01,2015-09-03 15:35:00,
2015-09-03 11:40:00,82.2,70.6,29.78,WNW,297,0.0,1.0,68,0.00,,---,0.00,VWS V14.01,2015-09-03 15:40:00,
2015-09-03 11:45:00,82.5,68.2,29.78,WNW,297,1.0,1.0,62,0.00,,---,0.00,VWS V14.01,2015-09-03 15:45:00,
2015-09-03 11:50:00,83.1,67.8,29.78,WNW,297,0.0,1.0,60,0.00,,---,0.00,VWS V14.01,2015-09-03 15:50:00,
2015-09-03 11:55:00,83.2,68.8,29.78,WNW,297,0.0,1.0,62,0.00,,---,0.00,VWS V14.01,2015-09-03 15:55:00,
2015-09-03 12:00:00,83.0,68.2,29.78,WNW,297,0.0,1.0,61,0.00,,---,0.00,VWS V14.01,2015-09-03 16:00:00,
2015-09-03 12:05:00,83.1,67.8,29.78,WNW,297,0.0,1.0,60,0.00,,---,0.00,VWS V14.01,2015-09-03 16:05:00,
2015-09-03 12:10:00,83.2,68.8,29.78,WNW,297,0.0,1.0,62,0.00,,---,0.00,VWS V14.01,2015-09-03 16:10:00,
2015-09-03 12:15:00,83.4,68.1,29.78,WNW,297,0.0,1.0,60,0.00,,---,0.00,VWS V14.01,2015-09-03 16:15:00,
2015-09-03 12:20:00,83.2,68.4,29.78,WNW,297,0.0,1.0,61,0.00,,---,0.00,VWS V14.01,2015-09-03 16:20:00,
2015-09-03 12:25:00,83.1,68.7,29.77,WNW,297,0.0,1.0,62,0.00,,---,0.00,VWS V14.01,2015-09-03 16:25:00,
2015-09-03 12:30:00,83.2,69.8,29.77,WNW,297,0.0,1.0,64,0.00,,---,0.00,VWS V14.01,2015-09-03 16:30:00,
2015-09-03 12:35:00,83.2,68.8,29.78,WNW,297,0.0,1.0,62,0.00,,---,0.00,VWS V14.01,2015-09-03 16:35:00,
2015-09-03 12:40:00,83.4,69.5,29.77,WNW,297,0.0,1.0,63,0.00,,---,0.00,VWS V14.01,2015-09-03 16:40:00,
2015-09-03 12:45:00,83.9,69.0,29.77,SSW,211,0.0,1.0,61,0.00,,---,0.00,VWS V14.01,2015-09-03 16:45:00,
2015-09-03 12:50:00,84.1,69.2,29.77,SSW,211,0.0,1.0,61,0.00,,---,0.00,VWS V14.01,2015-09-03 16:50:00,
2015-09-03 12:54:00,83.8,68.9,29.77,SSW,211,0.0,1.0,61,0.00,,---,0.00,VWS V14.01,2015-09-03 16:54:00,
2015-09-03 12:59:00,83.7,69.8,29.77,SSW,211,0.0,1.0,63,0.00,,---,0.00,VWS V14.01,2015-09-03 16:59:00,
2015-09-03 13:04:00,83.4,68.6,29.77,SSW,211,0.0,0.0,61,0.00,,---,0.00,VWS V14.01,2015-09-03 17:04:00,
2015-09-03 13:09:00,83.8,68.0,29.77,SSW,211,0.0,0.0,59,0.00,,---,0.00,VWS V14.01,2015-09-03 17:09:00,
2015-09-03 13:14:00,84.5,67.6,29.77,SSW,211,0.0,0.0,57,0.00,,---,0.00,VWS V14.01,2015-09-03 17:14:00,
2015-09-03 13:19:00,85.5,68.0,29.76,SSW,211,0.0,0.0,56,0.00,,---,0.00,VWS V14.01,2015-09-03 17:19:00,
2015-09-03 13:24:00,85.9,68.4,29.76,SSW,211,0.0,1.0,56,0.00,,---,0.00,VWS V14.01,2015-09-03 17:24:00,
2015-09-03 13:29:00,85.5,69.6,29.76,SSW,211,0.0,1.0,59,0.00,,---,0.00,VWS V14.01,2015-09-03 17:29:00,
2015-09-03 13:34:00,84.7,68.3,29.76,West,276,0.0,1.0,58,0.00,,---,0.00,VWS V14.01,2015-09-03 17:34:00,
2015-09-03 13:39:00,84.9,68.0,29.76,West,276,0.0,2.0,57,0.00,,---,0.00,VWS V14.01,2015-09-03 17:39:00,
2015-09-03 13:44:00,85.6,69.1,29.76,West,276,0.0,2.0,58,0.00,,---,0.00,VWS V14.01,2015-09-03 17:44:00,
2015-09-03 13:49:00,86.0,69.0,29.76,West,276,0.0,2.0,57,0.00,,---,0.00,VWS V14.01,2015-09-03 17:49:00,
2015-09-03 13:54:00,85.8,69.3,29.76,West,276,0.0,2.0,58,0.00,,---,0.00,VWS V14.01,2015-09-03 17:54:00,
2015-09-03 13:59:00,85.7,68.7,29.76,West,276,0.0,2.0,57,0.00,,---,0.00,VWS V14.01,2015-09-03 17:59:00,
2015-09-03 14:04:00,85.8,68.3,29.76,West,275,0.0,2.0,56,0.00,,---,0.00,VWS V14.01,2015-09-03 18:04:00,
2015-09-03 14:09:00,86.8,68.2,29.76,West,275,0.0,2.0,54,0.00,,---,0.00,VWS V14.01,2015-09-03 18:09:00,
2015-09-03 14:14:00,86.9,68.3,29.76,West,275,0.0,2.0,54,0.00,,---,0.00,VWS V14.01,2015-09-03 18:14:00,
2015-09-03 14:19:00,86.5,69.0,29.76,West,275,0.0,2.0,56,0.00,,---,0.00,VWS V14.01,2015-09-03 18:19:00,
2015-09-03 14:24:00,86.2,67.1,29.76,West,275,0.0,2.0,53,0.00,,---,0.00,VWS V14.01,2015-09-03 18:24:00,
2015-09-03 14:29:00,86.4,68.9,29.75,West,275,0.0,2.0,56,0.00,,---,0.00,VWS V14.01,2015-09-03 18:29:00,
2015-09-03 14:34:00,86.5,70.5,29.75,West,275,0.0,0.0,59,0.00,,---,0.00,VWS V14.01,2015-09-03 18:34:00,
2015-09-03 14:39:00,86.3,68.2,29.75,West,275,0.0,0.0,55,0.00,,---,0.00,VWS V14.01,2015-09-03 18:39:00,
2015-09-03 14:44:00,86.3,67.7,29.76,West,275,0.0,0.0,54,0.00,,---,0.00,VWS V14.01,2015-09-03 18:44:00,
2015-09-03 14:49:00,86.6,68.5,29.76,West,275,0.0,0.0,55,0.00,,---,0.00,VWS V14.01,2015-09-03 18:49:00,
2015-09-03 14:54:00,86.8,67.1,29.75,West,275,0.0,0.0,52,0.00,,---,0.00,VWS V14.01,2015-09-03 18:54:00,
2015-09-03 14:59:00,87.0,67.8,29.75,West,275,0.0,0.0,53,0.00,,---,0.00,VWS V14.01,2015-09-03 18:59:00,
2015-09-03 15:04:00,87.0,69.4,29.75,West,275,0.0,1.0,56,0.00,,---,0.00,VWS V14.01,2015-09-03 19:04:00,
2015-09-03 15:09:00,86.6,68.0,29.75,West,275,0.0,1.0,54,0.00,,---,0.00,VWS V14.01,2015-09-03 19:09:00,
2015-09-03 15:14:00,86.7,67.5,29.75,West,275,0.0,1.0,53,0.00,,---,0.00,VWS V14.01,2015-09-03 19:14:00,
2015-09-03 15:19:00,86.7,66.4,29.75,West,275,0.0,1.0,51,0.00,,---,0.00,VWS V14.01,2015-09-03 19:19:00,
2015-09-03 15:24:00,87.2,66.9,29.75,West,275,0.0,2.0,51,0.00,,---,0.00,VWS V14.01,2015-09-03 19:24:00,
2015-09-03 15:29:00,87.4,67.1,29.75,West,275,0.0,2.0,51,0.00,,---,0.00,VWS V14.01,2015-09-03 19:29:00,
2015-09-03 15:34:00,87.2,66.9,29.75,West,275,0.0,0.0,51,0.00,,---,0.00,VWS V14.01,2015-09-03 19:34:00,
2015-09-03 15:39:00,87.6,66.1,29.75,West,275,0.0,0.0,49,0.00,,---,0.00,VWS V14.01,2015-09-03 19:39:00,
2015-09-03 15:44:00,87.7,66.8,29.74,West,275,0.0,0.0,50,0.00,,---,0.00,VWS V14.01,2015-09-03 19:44:00,
2015-09-03 15:49:00,87.5,67.2,29.74,West,275,0.0,0.0,51,0.00,,---,0.00,VWS V14.01,2015-09-03 19:49:00,
2015-09-03 15:54:00,87.3,65.8,29.74,West,275,0.0,0.0,49,0.00,,---,0.00,VWS V14.01,2015-09-03 19:54:00,
2015-09-03 15:59:00,87.5,66.6,29.74,West,275,0.0,0.0,50,0.00,,---,0.00,VWS V14.01,2015-09-03 19:59:00,
2015-09-03 16:04:00,87.5,66.6,29.74,West,275,0.0,0.0,50,0.00,,---,0.00,VWS V14.01,2015-09-03 20:04:00,
2015-09-03 16:09:00,87.3,67.0,29.74,West,275,0.0,0.0,51,0.00,,---,0.00,VWS V14.01,2015-09-03 20:09:00,
2015-09-03 16:14:00,86.9,67.7,29.74,West,275,0.0,0.0,53,0.00,,---,0.00,VWS V14.01,2015-09-03 20:14:00,
2015-09-03 16:19:00,86.5,67.9,29.74,West,275,0.0,0.0,54,0.00,,---,0.00,VWS V14.01,2015-09-03 20:19:00,